Time;durP1;ratioP1;P1;durP2;ratioP2;P2;SDS_P1;SDS_P2;PMS_P1;PMS_P2;Temp;Humidity;BMP_temperature;BMP_pressure;BME280_temperature;BME280_humidity;BME280_pressure;Samples;Min_cycle;Max_cycle;Signal;HPM_P1;HPM_P2
2021/12/01 00:00:59;;;;;;;19.65;11.60;;;8.60;99.90;;;;;;5061045;28;20083;-71
2021/12/01 00:03:26;;;;;;;19.50;11.73;;;8.70;99.90;;;;;;5061952;28;20131;-70
2021/12/01 00:05:53;;;;;;;24.70;12.95;;;8.70;99.90;;;;;;5063832;28;20053;-70
2021/12/01 00:08:20;;;;;;;21.15;10.90;;;8.80;99.90;;;;;;5059416;28;20366;-69
2021/12/01 00:10:48;;;;;;;17.75;10.80;;;8.80;99.90;;;;;;5059230;28;20108;-70
2021/12/01 00:13:17;;;;;;;23.52;11.73;;;8.90;99.90;;;;;;5072280;28;20099;-70
2021/12/01 00:15:47;;;;;;;18.38;11.77;;;8.90;99.90;;;;;;5057239;28;20162;-70
2021/12/01 00:18:15;;;;;;;24.05;11.68;;;9.00;99.90;;;;;;5054708;28;20470;-70
2021/12/01 00:20:42;;;;;;;20.67;13.25;;;9.00;99.90;;;;;;5066473;28;20140;-71
2021/12/01 00:23:09;;;;;;;20.23;11.98;;;9.00;99.90;;;;;;5051716;28;20488;-71
2021/12/01 00:25:39;;;;;;;33.20;14.38;;;9.10;99.90;;;;;;5066459;28;20057;-71
2021/12/01 00:28:07;;;;;;;25.67;13.63;;;9.10;99.90;;;;;;5051113;28;20450;-70
2021/12/01 00:30:35;;;;;;;22.80;13.07;;;9.10;99.90;;;;;;5067410;28;20054;-70
2021/12/01 00:33:03;;;;;;;21.92;13.93;;;9.10;99.90;;;;;;5072681;28;20076;-70
2021/12/01 00:35:31;;;;;;;26.00;13.63;;;9.20;99.90;;;;;;5057080;28;20083;-70
2021/12/01 00:37:57;;;;;;;24.80;14.38;;;9.20;99.90;;;;;;5059119;28;20475;-70
2021/12/01 00:40:26;;;;;;;28.40;15.40;;;9.30;99.90;;;;;;5061785;28;20084;-70
2021/12/01 00:42:54;;;;;;;24.35;14.63;;;9.30;99.90;;;;;;5072955;28;20485;-70
2021/12/01 00:45:22;;;;;;;23.90;14.98;;;9.30;99.90;;;;;;5063256;28;20473;-69
2021/12/01 00:47:52;;;;;;;23.98;14.80;;;9.30;99.90;;;;;;5075650;28;20084;-70
2021/12/01 00:50:23;;;;;;;31.70;14.23;;;9.40;99.90;;;;;;5059447;28;20061;-70
2021/12/01 00:52:51;;;;;;;24.55;14.95;;;9.40;99.90;;;;;;5060574;28;20048;-70
2021/12/01 00:55:18;;;;;;;22.17;14.63;;;9.40;99.90;;;;;;5060769;28;20492;-70
2021/12/01 00:57:45;;;;;;;22.80;14.40;;;9.40;99.90;;;;;;5060634;28;20500;-71
2021/12/01 01:00:13;;;;;;;22.08;12.75;;;9.40;99.90;;;;;;5050650;28;20114;-71
2021/12/01 01:02:40;;;;;;;26.50;13.38;;;9.40;99.90;;;;;;5075576;28;20133;-72
2021/12/01 01:05:08;;;;;;;23.90;13.90;;;9.40;99.90;;;;;;5063657;28;20125;-71
2021/12/01 01:07:37;;;;;;;20.92;12.43;;;9.40;99.90;;;;;;5058444;28;20056;-71
2021/12/01 01:10:16;;;;;;;21.90;12.10;;;9.40;99.90;;;;;;5056678;28;20088;-71
2021/12/01 01:18:21;;;;;;;21.40;11.50;;;9.50;99.90;;;;;;5032508;28;20053;-71
2021/12/01 01:20:48;;;;;;;25.23;11.77;;;9.50;99.90;;;;;;5060251;28;20442;-71
2021/12/01 01:23:16;;;;;;;22.58;11.50;;;9.50;99.90;;;;;;5059604;28;20141;-71
2021/12/01 01:25:43;;;;;;;17.20;10.50;;;9.50;99.90;;;;;;5077580;28;20065;-70
2021/12/01 01:28:10;;;;;;;19.88;10.20;;;9.50;99.90;;;;;;5074562;28;20500;-71
2021/12/01 01:30:37;;;;;;;24.23;11.38;;;9.50;99.90;;;;;;5059434;28;20127;-71
2021/12/01 01:33:03;;;;;;;21.88;11.45;;;9.50;99.90;;;;;;5081959;28;20076;-71
2021/12/01 01:35:30;;;;;;;15.90;9.98;;;9.50;99.90;;;;;;5068443;28;20045;-70
2021/12/01 01:37:57;;;;;;;23.83;10.48;;;9.50;99.90;;;;;;5064763;28;20139;-70
2021/12/01 01:40:26;;;;;;;17.90;9.77;;;9.50;99.90;;;;;;5080215;28;20045;-70
2021/12/01 01:42:52;;;;;;;17.38;8.93;;;9.60;99.90;;;;;;5062931;28;20496;-70
2021/12/01 01:45:19;;;;;;;15.95;8.20;;;9.60;99.90;;;;;;5080859;28;20536;-70
2021/12/01 01:47:58;;;;;;;19.05;9.48;;;9.60;99.90;;;;;;5064953;28;20110;-70
2021/12/01 01:50:34;;;;;;;14.77;8.30;;;9.60;99.90;;;;;;5060801;28;20133;-71
2021/12/01 01:53:02;;;;;;;17.67;8.35;;;9.60;99.90;;;;;;5078288;28;20045;-70
2021/12/01 01:55:30;;;;;;;13.32;7.05;;;9.60;99.90;;;;;;5077808;28;20114;-71
2021/12/01 01:57:57;;;;;;;17.63;7.38;;;9.60;99.90;;;;;;5089440;28;20135;-70
2021/12/01 02:00:24;;;;;;;13.35;5.75;;;9.60;99.90;;;;;;5058987;28;20412;-70
2021/12/01 02:02:52;;;;;;;13.65;5.68;;;9.70;99.90;;;;;;5065357;28;20127;-70
2021/12/01 02:05:19;;;;;;;12.18;5.68;;;9.70;99.90;;;;;;5054601;28;20064;-70
2021/12/01 02:07:46;;;;;;;13.65;5.75;;;9.70;99.90;;;;;;5063360;28;20057;-70
2021/12/01 02:10:13;;;;;;;10.85;4.57;;;9.70;99.90;;;;;;5064193;28;20102;-69
2021/12/01 02:12:41;;;;;;;12.52;4.90;;;9.70;99.90;;;;;;5055076;28;20146;-70
2021/12/01 02:15:09;;;;;;;10.35;3.90;;;9.70;99.90;;;;;;5052823;28;20075;-69
2021/12/01 02:17:36;;;;;;;7.47;3.58;;;9.70;99.90;;;;;;5062433;28;20126;-70
2021/12/01 02:20:11;;;;;;;9.10;3.63;;;9.70;99.90;;;;;;5077895;28;20569;-69
2021/12/01 02:22:39;;;;;;;7.78;3.17;;;9.70;99.90;;;;;;5067216;28;20136;-70
2021/12/01 02:25:06;;;;;;;8.48;3.28;;;9.80;99.90;;;;;;5062679;28;20498;-69
2021/12/01 02:27:33;;;;;;;7.60;2.97;;;9.70;99.90;;;;;;5063599;28;20141;-70
2021/12/01 02:30:00;;;;;;;9.25;3.67;;;9.70;99.90;;;;;;5060194;28;20099;-69
2021/12/01 02:32:27;;;;;;;3.40;2.15;;;9.60;99.90;;;;;;5064775;28;20106;-69
2021/12/01 02:34:53;;;;;;;14.05;2.03;;;9.60;99.90;;;;;;5053279;28;20056;-69
2021/12/01 02:37:21;;;;;;;6.20;1.77;;;9.60;99.90;;;;;;5063032;28;20114;-70
2021/12/01 02:39:52;;;;;;;4.55;1.70;;;9.50;99.90;;;;;;5061947;28;20064;-69
2021/12/01 02:42:20;;;;;;;5.57;1.60;;;9.50;99.90;;;;;;5054304;28;20437;-70
2021/12/01 02:44:47;;;;;;;4.47;2.10;;;9.50;99.90;;;;;;5079047;28;20091;-70
2021/12/01 02:47:14;;;;;;;5.80;1.42;;;9.50;99.90;;;;;;5062738;28;20117;-70
2021/12/01 02:49:41;;;;;;;6.18;1.77;;;9.40;99.90;;;;;;5066415;28;20111;-70
2021/12/01 02:52:08;;;;;;;8.15;1.80;;;9.40;99.90;;;;;;5057348;28;20120;-70
2021/12/01 02:54:35;;;;;;;8.55;2.33;;;9.40;99.90;;;;;;5073532;28;20110;-69
2021/12/01 02:57:04;;;;;;;7.50;1.88;;;9.50;99.90;;;;;;5079577;28;20056;-70
2021/12/01 02:59:31;;;;;;;6.20;2.00;;;9.50;99.90;;;;;;5056000;28;20087;-70
2021/12/01 03:01:59;;;;;;;4.57;1.70;;;9.50;99.90;;;;;;5071363;28;20045;-70
2021/12/01 03:04:27;;;;;;;6.85;2.35;;;9.50;99.90;;;;;;5088748;28;20493;-70
2021/12/01 03:06:55;;;;;;;12.93;1.85;;;9.50;99.90;;;;;;5072530;28;20412;-70
2021/12/01 03:09:22;;;;;;;5.57;1.63;;;9.60;99.90;;;;;;5071842;28;20048;-70
2021/12/01 03:11:50;;;;;;;7.13;2.50;;;9.60;99.90;;;;;;5087829;28;20106;-70
2021/12/01 03:14:19;;;;;;;6.95;2.15;;;9.60;99.90;;;;;;5059603;28;20053;-70
2021/12/01 03:16:48;;;;;;;9.13;2.23;;;9.60;99.90;;;;;;5060179;28;20052;-70
2021/12/01 03:19:15;;;;;;;9.60;2.78;;;9.60;99.90;;;;;;5059837;28;20084;-70
2021/12/01 03:21:43;;;;;;;3.97;1.73;;;9.60;99.90;;;;;;5058590;28;20045;-70
2021/12/01 03:24:11;;;;;;;4.38;1.90;;;9.70;99.90;;;;;;5062407;28;20081;-69
2021/12/01 03:26:38;;;;;;;5.47;1.98;;;9.70;99.90;;;;;;5063260;28;20135;-69
2021/12/01 03:29:07;;;;;;;6.22;1.63;;;9.70;99.90;;;;;;5059954;28;20056;-70
2021/12/01 03:31:36;;;;;;;4.40;1.65;;;9.60;99.90;;;;;;5056775;28;20105;-69
2021/12/01 03:34:04;;;;;;;3.60;1.55;;;9.60;99.90;;;;;;5057361;28;20457;-70
2021/12/01 03:36:31;;;;;;;7.43;1.92;;;9.70;99.90;;;;;;5060411;28;20114;-69
2021/12/01 03:38:58;;;;;;;6.63;1.88;;;9.60;99.90;;;;;;5075236;28;20057;-69
2021/12/01 03:41:25;;;;;;;9.27;2.30;;;9.60;99.90;;;;;;5068274;28;20080;-70
2021/12/01 03:43:52;;;;;;;10.13;2.53;;;9.60;99.90;;;;;;5065150;28;20086;-69
2021/12/01 03:46:19;;;;;;;12.35;2.92;;;9.60;99.90;;;;;;5056695;28;20070;-69
2021/12/01 03:48:47;;;;;;;9.80;2.10;;;9.60;99.90;;;;;;5055479;28;20585;-69
2021/12/01 03:51:14;;;;;;;12.30;2.97;;;9.60;99.90;;;;;;5062117;28;20084;-70
2021/12/01 03:53:41;;;;;;;5.15;2.22;;;9.60;99.90;;;;;;5060866;28;20044;-70
2021/12/01 03:56:08;;;;;;;8.57;2.10;;;9.60;99.90;;;;;;5076516;28;20096;-71
2021/12/01 03:58:35;;;;;;;8.75;2.45;;;9.60;99.90;;;;;;5062546;28;20049;-71
2021/12/01 04:01:01;;;;;;;16.08;3.92;;;9.50;99.90;;;;;;5053558;28;20073;-71
2021/12/01 04:03:28;;;;;;;15.52;3.15;;;9.50;99.90;;;;;;5059089;28;20503;-71
2021/12/01 04:05:56;;;;;;;17.30;2.97;;;9.50;99.90;;;;;;5060738;28;20110;-71
2021/12/01 04:08:23;;;;;;;11.63;4.05;;;9.50;99.90;;;;;;5061857;28;20076;-71
2021/12/01 04:10:50;;;;;;;19.88;3.97;;;9.50;99.90;;;;;;5061709;28;20083;-71
2021/12/01 04:13:17;;;;;;;16.00;3.72;;;9.50;99.90;;;;;;5056873;28;20044;-70
2021/12/01 04:15:44;;;;;;;13.52;3.20;;;9.50;99.90;;;;;;5060301;28;20128;-72
2021/12/01 04:18:11;;;;;;;10.43;2.58;;;9.50;99.90;;;;;;5073972;28;20087;-70
2021/12/01 04:20:38;;;;;;;10.95;3.50;;;9.40;99.90;;;;;;5061419;28;20466;-70
2021/12/01 04:23:07;;;;;;;7.43;2.58;;;9.40;99.90;;;;;;5058651;28;20081;-70
2021/12/01 04:25:34;;;;;;;11.23;3.30;;;9.40;99.90;;;;;;5063400;28;20060;-69
2021/12/01 04:28:01;;;;;;;10.82;2.97;;;9.40;99.90;;;;;;5060885;28;20485;-70
2021/12/01 04:30:28;;;;;;;9.07;2.50;;;9.40;99.90;;;;;;5059612;28;20523;-70
2021/12/01 04:32:56;;;;;;;10.60;3.08;;;9.30;99.90;;;;;;5060299;28;20126;-70
2021/12/01 04:35:25;;;;;;;11.32;2.90;;;9.30;99.90;;;;;;5052846;28;20053;-70
2021/12/01 04:37:52;;;;;;;8.20;2.45;;;9.40;99.90;;;;;;5061799;28;20045;-69
2021/12/01 04:40:21;;;;;;;8.68;2.08;;;9.60;99.90;;;;;;5059550;28;20501;-69
2021/12/01 04:42:48;;;;;;;10.48;2.53;;;9.40;99.90;;;;;;5077156;28;20080;-70
2021/12/01 04:45:17;;;;;;;9.98;2.08;;;9.40;99.90;;;;;;5061040;28;20103;-70
2021/12/01 04:47:46;;;;;;;7.97;1.90;;;9.40;99.90;;;;;;5058786;28;20059;-70
2021/12/01 04:50:14;;;;;;;7.03;2.00;;;9.40;99.90;;;;;;5063714;28;20131;-70
2021/12/01 04:52:41;;;;;;;8.10;2.05;;;9.40;99.90;;;;;;5047733;28;20212;-70
2021/12/01 04:55:09;;;;;;;6.28;2.30;;;9.40;99.90;;;;;;5060843;28;20463;-71
2021/12/01 04:57:40;;;;;;;8.45;2.72;;;9.40;99.90;;;;;;5060035;28;20056;-69
2021/12/01 05:00:08;;;;;;;;;;;9.40;99.90;;;;;;5058866;28;20133;-70
2021/12/01 05:02:34;;;;;;;4.60;2.63;;;9.40;99.90;;;;;;5060262;28;19959;-70
2021/12/01 05:05:01;;;;;;;5.28;2.28;;;9.40;99.90;;;;;;5066956;28;20099;-70
2021/12/01 05:07:28;;;;;;;5.07;2.13;;;9.40;99.90;;;;;;5058274;28;20060;-70
2021/12/01 05:09:56;;;;;;;5.22;2.42;;;9.40;99.90;;;;;;5077683;28;20106;-70
2021/12/01 05:12:23;;;;;;;4.30;1.92;;;9.40;99.90;;;;;;5052141;28;20062;-70
2021/12/01 05:14:51;;;;;;;3.58;1.80;;;9.30;99.90;;;;;;5059345;28;20135;-70
2021/12/01 05:17:20;;;;;;;2.75;1.50;;;9.30;99.90;;;;;;5060517;28;20509;-70
2021/12/01 05:19:47;;;;;;;3.88;1.75;;;9.40;99.90;;;;;;5060505;28;20442;-71
2021/12/01 05:22:13;;;;;;;3.00;1.65;;;9.40;99.90;;;;;;5060062;28;20094;-71
2021/12/01 05:24:40;;;;;;;3.00;1.20;;;9.30;99.90;;;;;;5055670;28;20505;-70
2021/12/01 05:27:07;;;;;;;1.90;1.10;;;9.30;99.90;;;;;;5058017;28;20048;-70
2021/12/01 05:29:34;;;;;;;1.30;0.70;;;9.30;99.90;;;;;;5061545;28;20052;-70
2021/12/01 05:32:03;;;;;;;2.47;1.63;;;9.20;99.90;;;;;;5058741;28;20458;-70
2021/12/01 05:34:30;;;;;;;2.03;0.90;;;9.20;99.90;;;;;;5054599;28;20469;-70
2021/12/01 05:37:00;;;;;;;1.63;0.88;;;9.20;99.90;;;;;;5061986;28;20080;-70
2021/12/01 05:39:27;;;;;;;3.07;1.00;;;9.20;99.90;;;;;;5054188;28;20496;-70
2021/12/01 05:41:54;;;;;;;1.70;0.93;;;9.20;99.90;;;;;;5062581;28;20053;-70
2021/12/01 05:44:21;;;;;;;3.72;1.20;;;9.10;99.90;;;;;;5058743;28;20044;-69
2021/12/01 05:46:48;;;;;;;1.65;0.95;;;9.10;99.90;;;;;;5076638;28;20103;-70
2021/12/01 05:49:16;;;;;;;3.05;0.98;;;9.10;99.90;;;;;;5059919;28;20056;-70
2021/12/01 05:51:44;;;;;;;2.10;1.15;;;9.10;99.90;;;;;;5055893;28;20049;-70
2021/12/01 05:54:13;;;;;;;2.33;1.33;;;9.00;99.90;;;;;;5072994;28;20477;-69
2021/12/01 05:56:40;;;;;;;3.78;1.60;;;9.00;99.90;;;;;;5054097;28;20053;-70
2021/12/01 05:59:07;;;;;;;3.20;1.60;;;9.00;99.90;;;;;;5062169;28;20473;-70
2021/12/01 06:01:34;;;;;;;2.50;1.73;;;9.00;99.90;;;;;;5052169;28;20221;-69
2021/12/01 06:04:01;;;;;;;2.55;1.60;;;9.00;99.90;;;;;;5061118;28;20476;-70
2021/12/01 06:06:30;;;;;;;3.53;1.83;;;9.00;99.90;;;;;;5058476;28;20053;-70
2021/12/01 06:08:57;;;;;;;3.25;1.95;;;9.00;99.90;;;;;;5053621;28;20103;-70
2021/12/01 06:11:24;;;;;;;2.60;1.60;;;9.00;99.90;;;;;;5056826;28;20081;-70
2021/12/01 06:13:52;;;;;;;4.20;1.60;;;9.00;99.90;;;;;;5059859;28;20049;-71
2021/12/01 06:16:21;;;;;;;4.22;1.83;;;9.00;99.90;;;;;;5070863;28;20099;-70
2021/12/01 06:18:48;;;;;;;4.70;2.15;;;8.90;99.90;;;;;;5063195;28;20056;-71
2021/12/01 06:21:15;;;;;;;2.70;1.60;;;8.90;99.90;;;;;;5077893;28;20084;-70
2021/12/01 06:23:44;;;;;;;4.05;2.03;;;8.90;99.90;;;;;;5061163;28;20106;-71
2021/12/01 06:26:11;;;;;;;2.78;1.88;;;8.90;99.90;;;;;;5066566;28;20506;-70
2021/12/01 06:28:40;;;;;;;2.70;1.73;;;9.00;99.90;;;;;;5066293;28;20476;-70
2021/12/01 06:31:08;;;;;;;3.10;1.73;;;8.90;99.90;;;;;;5059467;28;20080;-71
2021/12/01 06:33:35;;;;;;;3.15;1.60;;;8.90;99.90;;;;;;5061623;28;20084;-72
2021/12/01 06:36:02;;;;;;;2.53;1.30;;;8.90;99.90;;;;;;5058585;28;20140;-72
2021/12/01 06:38:28;;;;;;;2.55;1.58;;;8.80;99.90;;;;;;5055279;28;20595;-71
2021/12/01 06:40:57;;;;;;;2.85;1.40;;;8.80;99.90;;;;;;5056184;28;20132;-70
2021/12/01 06:43:23;;;;;;;3.40;1.42;;;8.80;99.90;;;;;;5058047;28;20076;-70
2021/12/01 06:45:50;;;;;;;2.13;1.30;;;8.80;99.90;;;;;;5061860;28;20135;-70
2021/12/01 06:48:17;;;;;;;2.10;1.30;;;8.70;99.90;;;;;;5062047;28;20130;-71
2021/12/01 06:50:44;;;;;;;2.28;1.60;;;8.80;99.90;;;;;;5062296;28;20051;-71
2021/12/01 06:53:11;;;;;;;2.22;1.20;;;8.80;99.90;;;;;;5063456;28;20110;-70
2021/12/01 06:55:38;;;;;;;2.30;1.48;;;8.70;99.90;;;;;;5044047;28;20123;-70
2021/12/01 06:58:06;;;;;;;2.42;1.40;;;8.70;99.90;;;;;;5056558;28;20545;-71
2021/12/01 07:00:34;;;;;;;2.10;1.40;;;8.70;99.90;;;;;;5047226;28;20553;-71
2021/12/01 07:03:00;;;;;;;2.20;1.23;;;8.70;99.90;;;;;;5054687;28;20553;-71
2021/12/01 07:05:28;;;;;;;4.22;1.58;;;8.70;99.90;;;;;;5056026;28;20101;-72
2021/12/01 07:07:56;;;;;;;3.33;1.90;;;8.60;99.90;;;;;;5047315;28;20386;-72
2021/12/01 07:10:23;;;;;;;3.75;1.80;;;8.60;99.90;;;;;;5067128;28;20057;-72
2021/12/01 07:12:50;;;;;;;2.88;1.98;;;8.60;99.90;;;;;;5045965;28;20186;-72
2021/12/01 07:15:18;;;;;;;3.17;1.92;;;8.60;99.90;;;;;;5047011;28;20464;-72
2021/12/01 07:17:45;;;;;;;4.03;2.05;;;8.60;99.90;;;;;;5048768;28;20053;-72
2021/12/01 07:20:12;;;;;;;3.45;2.17;;;8.60;99.90;;;;;;5032805;28;20081;-72
2021/12/01 07:22:39;;;;;;;3.78;2.47;;;8.60;99.90;;;;;;5029899;28;20406;-72
2021/12/01 07:25:07;;;;;;;4.72;2.40;;;8.60;99.90;;;;;;5032155;28;20112;-72
2021/12/01 07:27:34;;;;;;;3.60;2.40;;;8.60;99.90;;;;;;5031001;28;20417;-71
2021/12/01 07:30:01;;;;;;;5.43;2.47;;;8.80;99.90;;;;;;5034120;28;20085;-71
2021/12/01 07:32:29;;;;;;;4.15;2.75;;;8.70;99.90;;;;;;5031609;28;20045;-72
2021/12/01 07:34:56;;;;;;;4.35;2.75;;;8.70;99.90;;;;;;5029914;28;20077;-71
2021/12/01 07:37:23;;;;;;;6.60;3.00;;;8.70;99.90;;;;;;5031383;28;20045;-71
2021/12/01 07:39:50;;;;;;;4.32;2.88;;;8.70;99.90;;;;;;5031344;28;20111;-71
2021/12/01 07:42:17;;;;;;;4.13;2.60;;;8.80;99.90;;;;;;5040307;28;20057;-71
2021/12/01 07:44:44;;;;;;;4.10;2.58;;;8.80;99.90;;;;;;5047093;28;20504;-71
2021/12/01 07:47:11;;;;;;;4.63;3.00;;;9.00;99.90;;;;;;5036943;28;20084;-71
2021/12/01 07:49:39;;;;;;;5.25;2.97;;;8.80;99.90;;;;;;5029529;28;20064;-71
2021/12/01 07:52:07;;;;;;;6.18;3.72;;;8.80;99.90;;;;;;5030428;28;20107;-71
2021/12/01 07:54:34;;;;;;;6.72;3.50;;;8.80;99.90;;;;;;5031111;28;20489;-70
2021/12/01 07:57:01;;;;;;;10.80;4.07;;;8.80;99.90;;;;;;5036478;28;20084;-71
2021/12/01 07:59:29;;;;;;;5.22;3.33;;;8.80;99.90;;;;;;5026533;28;20052;-70
2021/12/01 08:01:55;;;;;;;5.82;2.92;;;8.90;99.90;;;;;;5051670;28;20172;-71
2021/12/01 08:04:22;;;;;;;5.63;3.47;;;9.00;99.90;;;;;;5033682;28;20057;-71
2021/12/01 08:06:50;;;;;;;5.25;2.88;;;8.90;99.90;;;;;;5030523;28;20116;-72
2021/12/01 08:09:17;;;;;;;7.53;3.25;;;8.90;99.90;;;;;;5047590;28;20164;-73
2021/12/01 08:11:44;;;;;;;8.52;4.05;;;8.90;99.90;;;;;;5050911;28;20512;-72
2021/12/01 08:14:11;;;;;;;6.00;3.05;;;8.90;99.90;;;;;;5050161;28;20094;-71
2021/12/01 08:16:38;;;;;;;11.55;3.00;;;8.90;99.90;;;;;;5051036;28;20508;-71
2021/12/01 08:19:06;;;;;;;7.88;3.40;;;8.90;99.90;;;;;;5050832;28;20544;-71
2021/12/01 08:21:33;;;;;;;6.60;2.83;;;8.90;99.90;;;;;;5050327;28;20501;-71
2021/12/01 08:24:02;;;;;;;7.15;3.05;;;8.90;99.90;;;;;;5049038;28;20276;-71
2021/12/01 08:26:29;;;;;;;14.82;3.50;;;8.90;99.90;;;;;;5050128;28;20061;-71
2021/12/01 08:28:56;;;;;;;7.15;3.40;;;8.90;99.90;;;;;;5050480;28;20140;-71
2021/12/01 08:31:23;;;;;;;7.93;3.13;;;8.90;99.90;;;;;;5046691;28;20049;-72
2021/12/01 08:33:51;;;;;;;8.07;3.40;;;8.80;99.90;;;;;;5033068;28;20057;-71
2021/12/01 08:36:18;;;;;;;5.47;2.38;;;8.80;99.90;;;;;;5047460;28;20464;-71
2021/12/01 08:38:45;;;;;;;3.90;1.63;;;8.80;99.90;;;;;;5039125;28;20059;-71
2021/12/01 08:41:13;;;;;;;3.92;1.60;;;8.80;99.90;;;;;;5049369;28;20492;-71
2021/12/01 08:43:40;;;;;;;5.45;2.15;;;8.70;99.90;;;;;;5050431;28;20049;-71
2021/12/01 08:46:08;;;;;;;5.97;2.13;;;8.80;99.90;;;;;;5049419;28;20068;-71
2021/12/01 08:48:36;;;;;;;7.75;2.05;;;8.70;99.90;;;;;;5038753;28;20053;-71
2021/12/01 08:51:04;;;;;;;5.40;1.83;;;8.70;99.90;;;;;;5049733;28;20690;-71
2021/12/01 08:53:31;;;;;;;12.15;2.15;;;8.60;99.90;;;;;;5049732;28;20052;-71
2021/12/01 08:55:59;;;;;;;6.22;2.05;;;8.60;99.90;;;;;;5050433;28;20063;-71
2021/12/01 08:58:28;;;;;;;6.95;1.95;;;8.60;99.90;;;;;;5049690;28;20132;-71
2021/12/01 09:00:56;;;;;;;9.65;1.63;;;8.60;99.90;;;;;;5040388;28;20539;-70
2021/12/01 09:03:24;;;;;;;10.52;2.58;;;8.60;99.90;;;;;;5035281;28;20076;-73
2021/12/01 09:05:52;;;;;;;8.57;1.70;;;8.60;99.90;;;;;;5035315;28;20061;-71
2021/12/01 09:08:22;;;;;;;8.43;1.83;;;8.60;99.90;;;;;;5034364;28;20047;-71
2021/12/01 09:10:49;;;;;;;8.68;1.80;;;8.60;99.90;;;;;;5038313;28;20057;-71
2021/12/01 09:13:16;;;;;;;8.07;1.83;;;8.60;99.90;;;;;;5030045;28;20505;-71
2021/12/01 09:15:44;;;;;;;10.82;2.40;;;8.50;99.90;;;;;;5029264;28;20503;-70
2021/12/01 09:18:12;;;;;;;7.38;2.05;;;8.50;99.90;;;;;;5041317;28;20408;-70
2021/12/01 09:20:39;;;;;;;4.00;1.42;;;8.50;99.90;;;;;;5048435;28;20152;-71
2021/12/01 09:23:06;;;;;;;7.38;1.60;;;8.50;99.90;;;;;;5048967;28;20095;-71
2021/12/01 09:25:34;;;;;;;7.00;1.80;;;8.50;99.90;;;;;;5045776;28;20080;-71
2021/12/01 09:28:01;;;;;;;8.70;2.15;;;8.50;99.90;;;;;;5057986;28;20090;-71
2021/12/01 09:30:28;;;;;;;8.35;1.52;;;8.40;99.90;;;;;;5029373;28;20049;-69
2021/12/01 09:32:57;;;;;;;4.18;1.60;;;8.50;99.90;;;;;;5047333;28;20102;-70
2021/12/01 09:35:24;;;;;;;7.03;1.60;;;8.50;99.90;;;;;;5047714;28;20142;-70
2021/12/01 09:37:51;;;;;;;7.93;1.85;;;8.40;99.90;;;;;;5029922;28;20081;-70
2021/12/01 09:40:19;;;;;;;7.03;1.70;;;8.40;99.90;;;;;;5029286;28;20111;-70
2021/12/01 09:42:48;;;;;;;6.85;1.50;;;8.40;99.90;;;;;;5028036;28;20054;-70
2021/12/01 09:45:16;;;;;;;10.18;1.92;;;8.40;99.90;;;;;;5028886;28;20092;-70
2021/12/01 09:47:43;;;;;;;5.88;2.00;;;8.40;99.90;;;;;;5034401;28;20517;-70
2021/12/01 09:50:12;;;;;;;7.40;1.75;;;8.30;99.90;;;;;;5028576;28;20081;-70
2021/12/01 09:52:39;;;;;;;9.50;2.03;;;8.30;99.90;;;;;;5041874;28;20570;-71
2021/12/01 09:55:08;;;;;;;5.97;1.40;;;8.30;99.90;;;;;;5047899;28;20092;-70
2021/12/01 09:57:35;;;;;;;9.43;1.75;;;8.40;99.90;;;;;;5031816;28;20136;-71
2021/12/01 10:00:04;;;;;;;5.80;1.50;;;8.50;99.90;;;;;;5032935;28;20158;-70
2021/12/01 10:02:31;;;;;;;9.15;2.35;;;8.50;99.90;;;;;;5046096;28;20061;-71
2021/12/01 10:04:57;;;;;;;9.27;2.85;;;8.50;99.90;;;;;;5052706;28;20114;-71
2021/12/01 10:07:33;;;;;;;8.95;1.85;;;8.70;99.90;;;;;;5051748;28;20474;-71
2021/12/01 10:10:07;;;;;;;9.77;1.63;;;8.80;99.90;;;;;;5051458;28;20049;-71
2021/12/01 10:12:51;;;;;;;7.45;2.20;;;9.10;99.90;;;;;;5053836;28;20064;-72
2021/12/01 10:15:29;;;;;;;9.30;1.92;;;9.70;99.90;;;;;;5050846;28;20045;-71
2021/12/01 10:18:11;;;;;;;18.58;2.72;;;9.60;99.90;;;;;;5050957;28;20075;-71
2021/12/01 10:20:38;;;;;;;8.88;2.60;;;9.30;99.90;;;;;;5051665;28;20061;-70
2021/12/01 10:23:13;;;;;;;12.00;2.75;;;9.20;99.90;;;;;;5052282;28;20084;-70
2021/12/01 10:25:41;;;;;;;14.05;3.47;;;9.10;99.90;;;;;;5052255;28;20121;-69
2021/12/01 10:28:13;;;;;;;14.43;3.03;;;8.90;99.90;;;;;;5051587;28;20058;-69
2021/12/01 10:30:43;;;;;;;11.75;2.58;;;8.80;99.90;;;;;;5048993;28;20081;-70
2021/12/01 10:33:11;;;;;;;8.95;2.15;;;8.70;99.90;;;;;;5037786;28;20168;-69
2021/12/01 10:35:39;;;;;;;11.85;2.55;;;8.70;99.90;;;;;;5032304;28;20080;-71
2021/12/01 10:38:07;;;;;;;7.43;2.85;;;8.70;99.90;;;;;;5030962;28;20136;-71
2021/12/01 10:40:36;;;;;;;9.48;2.47;;;8.50;99.90;;;;;;5047343;28;20084;-70
2021/12/01 10:43:04;;;;;;;13.45;3.28;;;8.50;99.90;;;;;;5034289;28;20081;-70
2021/12/01 10:45:33;;;;;;;12.50;2.50;;;8.40;99.90;;;;;;5036427;28;20054;-70
2021/12/01 10:48:01;;;;;;;13.68;3.50;;;8.30;99.90;;;;;;5043847;28;20053;-69
2021/12/01 10:50:30;;;;;;;10.48;3.55;;;8.30;99.90;;;;;;5032042;28;20402;-70
2021/12/01 10:53:05;;;;;;;18.55;3.40;;;8.30;99.90;;;;;;5033135;28;20394;-70
2021/12/01 10:55:32;;;;;;;7.10;2.75;;;8.50;99.90;;;;;;5046535;28;20138;-71
2021/12/01 10:58:05;;;;;;;6.63;2.00;;;8.80;99.90;;;;;;5031524;28;20111;-70
2021/12/01 11:00:38;;;;;;;13.52;2.10;;;9.40;99.90;;;;;;5041327;28;20110;-71
2021/12/01 11:03:07;;;;;;;9.70;2.00;;;9.80;99.90;;;;;;5036287;28;20060;-70
2021/12/01 11:05:36;;;;;;;4.45;1.60;;;10.00;99.90;;;;;;5037899;28;20136;-70
2021/12/01 11:08:12;;;;;;;6.88;1.90;;;10.00;99.90;;;;;;5037205;28;20053;-71
2021/12/01 11:10:39;;;;;;;6.43;1.63;;;9.70;99.90;;;;;;5045939;28;20094;-70
2021/12/01 11:13:08;;;;;;;12.57;1.83;;;9.40;99.90;;;;;;5033812;28;20053;-70
2021/12/01 11:15:37;;;;;;;8.13;2.00;;;9.10;99.90;;;;;;5031463;28;20050;-70
2021/12/01 11:18:06;;;;;;;11.40;2.22;;;8.90;99.90;;;;;;5036032;28;20135;-71
2021/12/01 11:20:36;;;;;;;18.52;2.65;;;8.80;99.90;;;;;;5040375;28;20091;-72
2021/12/01 11:23:23;;;;;;;13.70;2.92;;;8.80;99.90;;;;;;5049281;28;20382;-70
2021/12/01 11:25:53;;;;;;;12.82;3.13;;;8.80;99.90;;;;;;5032805;28;20294;-70
2021/12/01 11:28:26;;;;;;;17.02;2.92;;;8.70;99.90;;;;;;5046621;28;20111;-69
2021/12/01 11:30:55;;;;;;;14.65;2.88;;;8.70;99.90;;;;;;5050880;28;20088;-69
2021/12/01 11:33:24;;;;;;;18.35;3.53;;;8.60;99.90;;;;;;5051123;28;20049;-70
2021/12/01 11:35:53;;;;;;;18.38;3.88;;;8.70;99.90;;;;;;5041426;28;20129;-70
2021/12/01 11:38:22;;;;;;;15.70;3.92;;;8.70;99.90;;;;;;5030566;28;20057;-70
2021/12/01 11:40:53;;;;;;;13.05;3.58;;;8.70;99.90;;;;;;5040801;28;20081;-70
2021/12/01 11:43:24;;;;;;;15.48;3.90;;;8.60;99.90;;;;;;5030641;28;20050;-70
2021/12/01 11:45:50;;;;;;;17.55;4.65;;;8.50;99.90;;;;;;5032694;28;20083;-69
2021/12/01 11:48:23;;;;;;;19.73;3.92;;;8.40;99.90;;;;;;5029659;28;20160;-69
2021/12/01 11:50:57;;;;;;;21.15;4.13;;;8.30;99.90;;;;;;5039999;28;20084;-69
2021/12/01 11:53:26;;;;;;;21.25;4.40;;;8.30;99.90;;;;;;5050934;28;20080;-70
2021/12/01 11:55:57;;;;;;;16.63;3.60;;;8.20;99.90;;;;;;5042518;28;20133;-70
2021/12/01 11:58:48;;;;;;;14.32;3.95;;;8.10;99.90;;;;;;5044984;28;20053;-71
2021/12/01 12:01:53;;;;;;;14.30;3.42;;;8.10;99.90;;;;;;5038699;28;20076;-69
2021/12/01 12:04:44;;;;;;;14.75;3.28;;;8.00;99.90;;;;;;5042857;28;20068;-70
2021/12/01 12:07:19;;;;;;;18.55;4.20;;;8.10;99.90;;;;;;5049514;28;20080;-71
2021/12/01 12:10:10;;;;;;;11.07;3.13;;;8.10;99.90;;;;;;5049505;28;20128;-71
2021/12/01 12:12:59;;;;;;;19.02;3.53;;;8.10;99.90;;;;;;5038604;28;20045;-71
2021/12/01 12:15:45;;;;;;;13.13;3.40;;;8.10;99.90;;;;;;5046505;28;20048;-71
2021/12/01 12:18:15;;;;;;;19.90;4.15;;;8.20;99.90;;;;;;5050258;28;20067;-71
2021/12/01 12:20:46;;;;;;;11.93;4.00;;;8.10;99.90;;;;;;5049635;28;20064;-71
2021/12/01 12:23:15;;;;;;;20.23;3.38;;;8.10;99.90;;;;;;5049160;28;20088;-71
2021/12/01 12:25:48;;;;;;;13.05;2.95;;;8.00;99.90;;;;;;5050272;28;20045;-71
2021/12/01 12:28:37;;;;;;;12.27;3.55;;;8.10;99.90;;;;;;5049418;28;20065;-70
2021/12/01 12:31:07;;;;;;;16.00;2.70;;;8.00;99.90;;;;;;5030941;28;20137;-71
2021/12/01 12:33:37;;;;;;;;;;;8.10;99.90;;;;;;5031016;28;20083;-70
2021/12/01 12:36:07;;;;;;;7.57;2.53;;;8.30;99.90;;;;;;5029621;28;19925;-71
2021/12/01 12:38:34;;;;;;;13.07;2.53;;;8.40;99.90;;;;;;5029319;28;20130;-71
2021/12/01 12:41:10;;;;;;;10.23;3.10;;;8.30;99.90;;;;;;5029343;28;20132;-71
2021/12/01 12:43:39;;;;;;;11.13;2.20;;;8.20;99.90;;;;;;5039261;28;20087;-71
2021/12/01 12:46:11;;;;;;;9.38;1.90;;;8.10;99.90;;;;;;5047436;28;20483;-71
2021/12/01 12:48:39;;;;;;;9.02;2.20;;;8.00;99.90;;;;;;5035699;28;20060;-71
2021/12/01 12:51:16;;;;;;;11.70;2.25;;;7.90;99.90;;;;;;5035857;28;20127;-70
2021/12/01 12:54:12;;;;;;;16.52;2.90;;;7.90;99.90;;;;;;5042686;28;20092;-71
2021/12/01 12:56:41;;;;;;;9.52;3.08;;;7.80;99.90;;;;;;5040180;28;20056;-71
2021/12/01 12:59:20;;;;;;;12.27;2.45;;;7.70;99.90;;;;;;5045287;28;20080;-70
2021/12/01 13:01:49;;;;;;;12.15;2.50;;;7.60;99.90;;;;;;5049419;28;20057;-70
2021/12/01 13:04:54;;;;;;;5.32;2.60;;;7.60;99.90;;;;;;5046523;28;20588;-70
2021/12/01 13:07:40;;;;;;;12.80;2.72;;;7.50;99.90;;;;;;5044811;28;20090;-71